createdAt,value
2018-01-15T00:00:29.383Z,65.32
2018-01-15T00:01:29.853Z,65.50
2018-01-15T00:02:30.319Z,65.48
2018-01-15T00:03:30.786Z,65.37
2018-01-15T00:04:31.309Z,65.32
2018-01-15T00:05:31.721Z,65.34
2018-01-15T00:06:32.189Z,65.50
2018-01-15T00:07:32.658Z,65.50
2018-01-15T00:08:33.126Z,65.60
2018-01-15T00:09:33.598Z,65.63
2018-01-15T00:10:34.059Z,65.55
2018-01-15T00:11:34.528Z,65.60
2018-01-15T00:12:34.997Z,65.62
2018-01-15T00:13:35.463Z,65.52
2018-01-15T00:14:35.931Z,65.49
2018-01-15T00:15:36.399Z,65.44
2018-01-15T00:16:36.866Z,65.49
2018-01-15T00:17:37.334Z,65.65
2018-01-15T00:18:37.802Z,65.59
2018-01-15T00:19:38.269Z,65.54
2018-01-15T00:20:38.738Z,65.49
2018-01-15T00:21:39.207Z,65.41
2018-01-15T00:22:39.675Z,65.46
2018-01-15T00:23:40.140Z,65.46
2018-01-15T00:24:40.609Z,65.61
2018-01-15T00:25:41.076Z,65.82
2018-01-15T00:26:41.543Z,65.87
2018-01-15T00:27:42.010Z,65.90
2018-01-15T00:28:42.478Z,65.90
2018-01-15T00:29:42.945Z,65.87
2018-01-15T00:30:43.412Z,65.84
2018-01-15T00:31:43.882Z,66.10
2018-01-15T00:32:44.349Z,66.10
2018-01-15T00:33:44.816Z,65.94
2018-01-15T00:34:45.284Z,66.00
2018-01-15T00:35:45.751Z,66.17
2018-01-15T00:36:46.220Z,66.25
2018-01-15T00:37:46.685Z,66.07
2018-01-15T00:38:47.154Z,66.04
2018-01-15T00:39:47.621Z,66.14
2018-01-15T00:40:48.089Z,66.19
2018-01-15T00:41:48.556Z,66.25
2018-01-15T00:42:49.025Z,66.29
2018-01-15T00:43:49.493Z,66.27
2018-01-15T00:44:50.009Z,66.24
2018-01-15T00:45:50.426Z,66.24
2018-01-15T00:46:50.895Z,66.35
2018-01-15T00:47:51.361Z,66.29
2018-01-15T00:48:51.831Z,66.34
2018-01-15T00:49:52.295Z,66.34
2018-01-15T00:50:52.766Z,66.34
2018-01-15T00:51:53.231Z,66.49
2018-01-15T00:52:53.703Z,66.47
2018-01-15T00:53:54.166Z,66.39
2018-01-15T00:54:54.633Z,66.36
2018-01-15T00:55:55.101Z,66.33
2018-01-15T00:56:55.571Z,66.31
2018-01-15T00:57:56.036Z,66.43
2018-01-15T00:58:56.506Z,66.57
2018-01-15T00:59:56.971Z,66.51
2018-01-15T01:00:57.441Z,66.61
2018-01-15T01:01:57.906Z,66.56
2018-01-15T01:02:58.380Z,66.64
2018-01-15T01:03:58.841Z,66.74
2018-01-15T01:04:59.309Z,66.64
2018-01-15T01:05:59.776Z,66.77
2018-01-15T01:07:00.245Z,66.92
2018-01-15T01:08:00.711Z,66.71
2018-01-15T01:09:01.178Z,66.74
2018-01-15T01:10:01.645Z,66.79
2018-01-15T01:11:02.112Z,66.68
2018-01-15T01:12:02.582Z,66.68
2018-01-15T01:13:03.047Z,66.89
2018-01-15T01:14:03.531Z,66.89
2018-01-15T01:15:03.983Z,67.04
2018-01-15T01:16:04.450Z,67.35
2018-01-15T01:17:04.919Z,67.14
2018-01-15T01:18:05.383Z,67.37
2018-01-15T01:19:05.854Z,67.32
2018-01-15T01:20:06.320Z,67.32
2018-01-15T01:21:06.787Z,67.32
2018-01-15T01:22:07.254Z,67.27
2018-01-15T01:23:07.720Z,67.19
2018-01-15T01:24:08.188Z,67.09
2018-01-15T01:25:08.657Z,67.11
2018-01-15T01:26:09.122Z,67.27
2018-01-15T01:27:09.590Z,67.09
2018-01-15T01:28:10.056Z,66.85
2018-01-15T01:29:10.525Z,66.70
2018-01-15T01:30:10.991Z,66.57
2018-01-15T01:31:11.458Z,66.62
2018-01-15T01:32:11.927Z,66.83
2018-01-15T01:33:12.394Z,67.03
2018-01-15T01:34:12.860Z,66.69
2018-01-15T01:35:13.329Z,66.69
2018-01-15T01:36:13.797Z,66.61
2018-01-15T01:37:14.263Z,66.58
2018-01-15T01:38:14.731Z,66.56
2018-01-15T01:39:15.197Z,66.64
2018-01-15T01:40:15.667Z,66.86
2018-01-15T01:41:16.134Z,66.94
2018-01-15T01:42:16.600Z,66.84
2018-01-15T01:43:17.066Z,66.84
2018-01-15T01:44:17.535Z,66.89
2018-01-15T01:45:18.005Z,67.02
2018-01-15T01:46:18.469Z,67.04
2018-01-15T01:47:18.939Z,67.17
2018-01-15T01:48:19.403Z,66.96
2018-01-15T01:49:19.874Z,66.93
2018-01-15T01:50:20.338Z,66.93
2018-01-15T01:51:20.807Z,66.91
2018-01-15T01:52:21.272Z,66.81
2018-01-15T01:53:21.742Z,66.78
2018-01-15T01:54:22.208Z,66.75
2018-01-15T01:55:22.678Z,66.96
2018-01-15T01:56:23.143Z,67.01
2018-01-15T01:57:23.612Z,66.93
2018-01-15T01:58:24.077Z,66.80
2018-01-15T01:59:24.546Z,66.80
2018-01-15T02:00:25.013Z,66.67
2018-01-15T02:01:25.482Z,66.64
2018-01-15T02:02:25.946Z,66.85
2018-01-15T02:03:26.415Z,66.77
2018-01-15T02:04:26.882Z,66.85
2018-01-15T02:05:27.357Z,66.74
2018-01-15T02:06:27.814Z,66.59
2018-01-15T02:07:28.284Z,66.53
2018-01-15T02:08:28.750Z,66.51
2018-01-15T02:09:29.218Z,66.43
2018-01-15T02:10:29.683Z,66.30
2018-01-15T02:11:30.153Z,66.30
2018-01-15T02:12:30.618Z,66.43
2018-01-15T02:13:31.087Z,66.40
2018-01-15T02:14:31.553Z,66.27
2018-01-15T02:15:32.021Z,66.27
2018-01-15T02:16:32.489Z,66.29
2018-01-15T02:17:32.954Z,66.32
2018-01-15T02:18:33.421Z,66.37
2018-01-15T02:19:33.890Z,66.37
2018-01-15T02:20:34.363Z,66.32
2018-01-15T02:21:34.825Z,66.29
2018-01-15T02:22:35.291Z,66.31
2018-01-15T02:23:35.757Z,66.21
2018-01-15T02:24:36.224Z,66.20
2018-01-15T02:25:36.694Z,66.23
2018-01-15T02:26:37.158Z,66.10
2018-01-15T02:27:37.627Z,66.10
2018-01-15T02:28:38.093Z,66.07
2018-01-15T02:29:38.561Z,66.10
2018-01-15T02:30:39.027Z,66.18
2018-01-15T02:31:39.495Z,66.15
2018-01-15T02:32:39.965Z,66.17
2018-01-15T02:33:40.431Z,66.12
2018-01-15T02:34:40.896Z,66.20
2018-01-15T02:35:41.364Z,66.12
2018-01-15T02:36:41.833Z,66.20
2018-01-15T02:37:42.299Z,66.27
2018-01-15T02:38:42.765Z,66.22
2018-01-15T02:39:43.232Z,66.19
2018-01-15T02:40:43.699Z,66.17
2018-01-15T02:41:44.168Z,66.22
2018-01-15T02:42:44.634Z,66.45
2018-01-15T02:43:45.101Z,66.29
2018-01-15T02:44:45.568Z,66.29
2018-01-15T02:45:46.036Z,66.50
2018-01-15T02:46:46.502Z,66.47
2018-01-15T02:47:46.969Z,66.55
2018-01-15T02:48:47.438Z,66.75
2018-01-15T02:49:47.904Z,66.83
2018-01-15T02:50:48.370Z,66.93
2018-01-15T02:51:48.837Z,67.14
2018-01-15T02:52:49.307Z,67.16
2018-01-15T02:53:49.774Z,67.03
2018-01-15T02:54:50.239Z,67.06
2018-01-15T02:56:51.175Z,66.90
2018-01-15T02:57:51.640Z,67.05
2018-01-15T02:58:52.106Z,67.00
2018-01-15T02:59:52.574Z,67.08
2018-01-15T03:00:53.043Z,66.95
2018-01-15T03:01:53.509Z,67.23
2018-01-15T03:02:53.981Z,66.82
2018-01-15T03:03:54.449Z,66.95
2018-01-15T03:04:54.915Z,66.92
2018-01-15T03:05:55.381Z,67.08
2018-01-15T03:06:55.843Z,67.18
2018-01-15T03:07:56.315Z,67.25
2018-01-15T03:08:56.782Z,67.13
2018-01-15T03:09:57.249Z,67.13
2018-01-15T03:10:57.718Z,67.10
2018-01-15T03:11:58.184Z,67.10
2018-01-15T03:12:58.650Z,67.07
2018-01-15T03:13:59.119Z,67.15
2018-01-15T03:14:59.585Z,67.35
2018-01-15T03:16:00.052Z,67.40
2018-01-15T03:19:01.453Z,67.50
2018-01-15T03:21:02.387Z,67.50
2018-01-15T03:22:02.906Z,67.63
2018-01-15T03:23:03.314Z,67.80
2018-01-15T03:24:03.786Z,67.75
2018-01-15T03:26:04.721Z,67.85
2018-01-15T03:27:05.186Z,67.98
2018-01-15T03:28:05.656Z,67.98
2018-01-15T03:29:06.124Z,67.80
2018-01-15T03:30:06.584Z,67.87
2018-01-15T03:31:07.055Z,67.80
2018-01-15T03:32:07.522Z,67.95
2018-01-15T03:33:07.989Z,67.78
2018-01-15T03:34:08.452Z,67.82
2018-01-15T03:35:08.924Z,67.80
2018-01-15T03:36:09.390Z,67.80
2018-01-15T03:37:09.857Z,67.87
2018-01-15T03:38:10.325Z,67.90
2018-01-15T03:39:10.789Z,67.87
2018-01-15T03:40:11.251Z,67.87
2018-01-15T03:41:11.725Z,67.87
2018-01-15T03:42:12.191Z,67.77
2018-01-15T03:43:12.656Z,67.67
2018-01-15T03:44:13.119Z,67.79
2018-01-15T03:45:13.592Z,67.69
2018-01-15T03:46:14.058Z,67.82
2018-01-15T03:47:14.524Z,67.84
2018-01-15T03:48:14.992Z,67.76
2018-01-15T03:50:15.926Z,67.84
2018-01-15T03:51:16.389Z,67.84
2018-01-15T03:52:16.859Z,67.84
2018-01-15T03:53:17.327Z,67.89
2018-01-15T03:54:17.796Z,67.86
2018-01-15T03:55:18.258Z,67.79
2018-01-15T03:56:18.725Z,67.84
2018-01-15T03:57:19.192Z,67.81
2018-01-15T03:58:19.660Z,67.81
2018-01-15T03:59:20.125Z,67.83
2018-01-15T04:00:20.593Z,67.78
2018-01-15T04:01:21.060Z,67.93
2018-01-15T04:02:21.521Z,67.96
2018-01-15T04:03:21.992Z,68.14
2018-01-15T04:04:22.462Z,68.14
2018-01-15T04:05:22.926Z,68.26
2018-01-15T04:06:23.394Z,68.18
2018-01-15T04:07:23.860Z,68.08
2018-01-15T04:08:24.328Z,68.11
2018-01-15T04:09:24.795Z,68.13
2018-01-15T04:10:25.268Z,68.11
2018-01-15T04:11:25.727Z,68.08
2018-01-15T04:12:26.192Z,68.15
2018-01-15T04:13:26.659Z,68.20
2018-01-15T04:14:27.128Z,68.13
2018-01-15T04:15:27.592Z,68.03
2018-01-15T04:16:28.055Z,68.02
2018-01-15T04:17:28.526Z,68.13
2018-01-15T04:18:28.993Z,68.41
2018-01-15T04:19:29.458Z,68.27
2018-01-15T04:20:29.930Z,68.20
2018-01-15T04:22:30.861Z,68.12
2018-01-15T04:23:31.320Z,68.17
2018-01-15T04:24:31.791Z,68.14
2018-01-15T04:25:32.259Z,68.24
2018-01-15T04:26:32.726Z,68.40
2018-01-15T04:28:33.657Z,68.25
2018-01-15T04:29:34.125Z,68.25
2018-01-15T04:30:34.592Z,68.27
2018-01-15T04:31:35.058Z,68.29
2018-01-15T04:32:35.526Z,68.42
2018-01-15T04:33:47.777Z,68.44
2018-01-15T04:34:36.459Z,68.34
2018-01-15T04:35:36.925Z,68.42
2018-01-15T04:36:37.388Z,68.59
2018-01-15T04:39:38.789Z,68.66
2018-01-15T04:40:39.257Z,68.79
2018-01-15T04:41:39.724Z,68.86
2018-01-15T04:42:40.189Z,68.82
2018-01-15T04:43:40.650Z,68.99
2018-01-15T04:44:41.124Z,68.86
2018-01-15T04:45:41.588Z,69.21
2018-01-15T04:46:42.055Z,69.26
2018-01-15T04:47:42.521Z,69.31
2018-01-15T04:48:42.988Z,69.46
2018-01-15T04:49:43.454Z,69.56
2018-01-15T04:50:43.922Z,69.79
2018-01-15T04:51:44.393Z,69.99
2018-01-15T04:52:44.851Z,69.94
2018-01-15T04:53:45.320Z,69.86
2018-01-15T04:54:57.778Z,69.94
2018-01-15T04:55:46.253Z,69.86
2018-01-15T04:56:46.718Z,70.06
2018-01-15T04:57:47.185Z,69.88
2018-01-15T04:58:47.656Z,69.86
2018-01-15T04:59:48.118Z,69.86
2018-01-15T05:00:48.585Z,69.73
2018-01-15T05:01:49.051Z,69.56
2018-01-15T05:02:49.519Z,69.58
2018-01-15T05:03:49.983Z,69.48
2018-01-15T05:04:50.445Z,69.56
2018-01-15T05:05:50.916Z,69.51
2018-01-15T05:06:51.385Z,69.51
2018-01-15T05:07:51.848Z,69.51
2018-01-15T05:08:52.315Z,69.61
2018-01-15T05:10:04.768Z,69.56
2018-01-15T05:10:53.249Z,69.83
2018-01-15T05:11:53.708Z,69.98
2018-01-15T05:12:54.180Z,70.03
2018-01-15T05:13:54.647Z,70.22
2018-01-15T05:14:55.112Z,70.20
2018-01-15T05:15:55.579Z,70.39
2018-01-15T05:16:56.046Z,70.27
2018-01-15T05:18:56.979Z,70.44
2018-01-15T05:19:57.445Z,70.45
2018-01-15T05:20:57.912Z,70.54
2018-01-15T05:21:58.378Z,70.77
2018-01-15T05:22:58.840Z,70.69
2018-01-15T05:23:59.311Z,70.64
2018-01-15T05:24:59.778Z,70.77
2018-01-15T05:26:00.237Z,70.77
2018-01-15T05:27:00.708Z,70.74
2018-01-15T05:28:01.176Z,70.59
2018-01-15T05:29:01.640Z,70.71
2018-01-15T05:30:02.113Z,70.67
2018-01-15T05:31:02.575Z,70.74
2018-01-15T05:32:03.039Z,70.69
2018-01-15T05:33:03.503Z,70.74
2018-01-15T05:34:03.973Z,70.76
2018-01-15T05:35:04.435Z,70.84
2018-01-15T05:36:04.907Z,70.84
2018-01-15T05:37:05.370Z,70.88
2018-01-15T05:38:05.839Z,70.83
2018-01-15T05:39:06.305Z,70.83
2018-01-15T05:40:06.820Z,70.88
2018-01-15T05:41:07.235Z,70.73
2018-01-15T05:42:07.701Z,70.78
2018-01-15T05:43:08.168Z,70.78
2018-01-15T05:44:08.633Z,70.83
2018-01-15T05:46:09.565Z,70.75
2018-01-15T05:47:10.034Z,70.56
2018-01-15T05:48:10.499Z,70.41
2018-01-15T05:49:10.968Z,70.48
2018-01-15T05:50:11.434Z,70.43
2018-01-15T05:51:11.894Z,70.35
2018-01-15T05:54:13.298Z,70.08
2018-01-15T05:56:14.234Z,69.80
2018-01-15T05:57:14.696Z,69.60
2018-01-15T05:58:15.162Z,69.52
2018-01-15T05:59:15.627Z,69.57
2018-01-15T06:00:16.093Z,69.62
2018-01-15T06:01:16.555Z,69.50
2018-01-15T06:02:17.026Z,69.50
2018-01-15T06:03:17.489Z,69.37
2018-01-15T06:04:17.957Z,69.22
2018-01-15T06:05:18.423Z,69.14
2018-01-15T06:06:18.890Z,69.12
2018-01-15T06:07:19.356Z,68.97
2018-01-15T06:08:19.822Z,68.94
2018-01-15T06:09:20.290Z,68.96
2018-01-15T06:10:20.749Z,68.89
2018-01-15T06:11:21.220Z,68.76
2018-01-15T06:13:22.160Z,68.86
2018-01-15T06:14:22.618Z,68.88
2018-01-15T06:15:23.084Z,68.73
2018-01-15T06:16:23.551Z,68.62
2018-01-15T06:17:24.015Z,68.50
2018-01-15T06:19:24.949Z,68.44
2018-01-15T06:20:25.413Z,68.39
2018-01-15T06:21:25.875Z,68.27
2018-01-15T06:22:26.354Z,68.14
2018-01-15T06:24:27.278Z,67.96
2018-01-15T06:25:39.837Z,67.93
2018-01-15T06:26:28.209Z,67.83
2018-01-15T06:27:28.672Z,67.82
2018-01-15T06:28:29.142Z,67.77
2018-01-15T06:29:29.608Z,67.67
2018-01-15T06:30:30.073Z,67.67
2018-01-15T06:31:30.541Z,67.52
2018-01-15T06:32:31.003Z,67.61
2018-01-15T06:33:31.473Z,67.72
2018-01-15T06:34:31.942Z,67.71
2018-01-15T06:35:32.404Z,67.61
2018-01-15T06:36:32.867Z,67.68
2018-01-15T06:37:33.341Z,67.58
2018-01-15T06:38:33.795Z,67.56
2018-01-15T06:39:34.269Z,67.50
2018-01-15T06:41:35.198Z,67.40
2018-01-15T06:42:35.662Z,67.37
2018-01-15T06:43:36.131Z,67.30
2018-01-15T06:44:36.595Z,67.32
2018-01-15T06:45:37.055Z,67.37
2018-01-15T06:46:37.526Z,67.29
2018-01-15T06:47:37.993Z,67.24
2018-01-15T06:48:38.457Z,67.37
2018-01-15T06:49:38.924Z,67.24
2018-01-15T06:51:39.854Z,67.24
2018-01-15T06:53:40.787Z,67.08
2018-01-15T06:54:41.256Z,67.13
2018-01-15T06:55:41.718Z,67.21
2018-01-15T06:56:42.178Z,67.13
2018-01-15T06:57:42.648Z,67.11
2018-01-15T06:58:43.114Z,67.06
2018-01-15T06:59:43.582Z,67.05
2018-01-15T07:00:44.041Z,67.03
2018-01-15T07:01:44.512Z,66.93
2018-01-15T07:02:44.977Z,66.95
2018-01-15T07:03:45.444Z,66.82
2018-01-15T07:04:45.908Z,66.82
2018-01-15T07:05:46.375Z,66.85
2018-01-15T07:06:46.840Z,66.82
2018-01-15T07:07:47.302Z,66.69
2018-01-15T07:08:47.772Z,66.75
2018-01-15T07:09:48.237Z,66.77
2018-01-15T07:10:48.756Z,66.77
2018-01-15T07:11:49.171Z,66.75
2018-01-15T07:12:49.636Z,66.62
2018-01-15T07:13:50.102Z,66.63
2018-01-15T07:14:50.566Z,66.65
2018-01-15T07:16:51.497Z,66.58
2018-01-15T07:17:51.963Z,66.51
2018-01-15T07:18:52.429Z,66.54
2018-01-15T07:19:52.897Z,66.46
2018-01-15T07:22:05.918Z,66.35
2018-01-15T07:22:54.289Z,66.37
2018-01-15T07:23:54.759Z,66.33
2018-01-15T07:24:55.224Z,66.33
2018-01-15T07:25:55.689Z,66.31
2018-01-15T07:26:56.155Z,66.27
2018-01-15T07:27:56.622Z,66.28
2018-01-15T07:28:57.086Z,66.23
2018-01-15T07:29:57.553Z,66.21
2018-01-15T07:30:58.020Z,66.22
2018-01-15T07:31:58.485Z,66.18
2018-01-15T07:32:58.950Z,66.21
2018-01-15T07:33:59.412Z,66.17
2018-01-15T07:34:59.884Z,66.18
2018-01-15T07:36:00.350Z,66.14
2018-01-15T07:37:00.815Z,66.15
2018-01-15T07:38:01.282Z,66.13
2018-01-15T07:39:01.748Z,66.07
2018-01-15T07:40:02.267Z,65.98
2018-01-15T07:41:02.676Z,65.99
2018-01-15T07:42:03.147Z,65.92
2018-01-15T07:43:03.615Z,65.96
2018-01-15T07:44:04.080Z,65.90
2018-01-15T07:45:04.543Z,65.75
2018-01-15T07:46:05.012Z,65.74
2018-01-15T07:47:05.530Z,65.70
2018-01-15T07:48:05.946Z,65.56
2018-01-15T07:50:06.879Z,65.43
2018-01-15T07:51:07.346Z,65.42
2018-01-15T07:52:07.812Z,65.25
2018-01-15T07:53:08.279Z,65.18
2018-01-15T07:54:08.746Z,65.17
2018-01-15T07:56:09.681Z,64.96
2018-01-15T07:57:10.146Z,64.92
2018-01-15T07:58:10.614Z,64.94
2018-01-15T07:59:11.080Z,64.79
2018-01-15T08:00:11.548Z,64.73
2018-01-15T08:01:12.016Z,64.56
2018-01-15T08:02:12.480Z,64.41
2018-01-15T08:03:12.950Z,64.50
2018-01-15T08:04:13.416Z,64.46
2018-01-15T08:05:13.882Z,64.39
2018-01-15T08:06:14.354Z,64.27
2018-01-15T08:07:14.869Z,64.08
2018-01-15T08:08:15.286Z,64.17
2018-01-15T08:09:15.747Z,63.86
2018-01-15T08:10:16.220Z,63.88
2018-01-15T08:11:16.690Z,63.79
2018-01-15T08:13:17.630Z,63.68
2018-01-15T08:14:18.085Z,63.45
2018-01-15T08:15:18.555Z,63.47
2018-01-15T08:16:19.021Z,63.37
2018-01-15T08:17:19.489Z,63.41
2018-01-15T08:18:19.957Z,63.37
2018-01-15T08:19:20.427Z,63.17
2018-01-15T08:20:20.894Z,63.21
2018-01-15T08:21:21.361Z,63.06
2018-01-15T08:22:21.829Z,63.15
2018-01-15T08:23:22.298Z,63.06
2018-01-15T08:24:22.766Z,63.07
2018-01-15T08:25:23.233Z,63.09
2018-01-15T08:26:23.701Z,63.07
2018-01-15T08:27:24.216Z,62.95
2018-01-15T08:28:24.640Z,62.92
2018-01-15T08:29:25.108Z,62.85
2018-01-15T08:30:25.578Z,62.75
2018-01-15T08:31:26.044Z,62.71
2018-01-15T08:32:26.518Z,62.92
2018-01-15T08:33:26.982Z,62.77
2018-01-15T08:34:27.450Z,62.75
2018-01-15T08:35:27.925Z,62.77
2018-01-15T08:36:28.388Z,62.57
2018-01-15T08:37:28.860Z,62.33
2018-01-15T08:38:29.326Z,62.62
2018-01-15T08:39:29.818Z,62.66
2018-01-15T08:40:30.265Z,62.57
2018-01-15T08:41:30.733Z,62.42
2018-01-15T08:42:31.202Z,62.54
2018-01-15T08:43:31.673Z,62.50
2018-01-15T08:44:32.141Z,62.49
2018-01-15T08:45:32.610Z,62.63
2018-01-15T08:46:33.081Z,62.46
2018-01-15T08:47:33.551Z,62.17
2018-01-15T08:48:34.019Z,61.97
2018-01-15T08:49:34.488Z,62.01
2018-01-15T08:50:34.958Z,62.05
2018-01-15T08:51:35.428Z,61.79
2018-01-15T08:52:35.899Z,61.75
2018-01-15T08:53:36.370Z,61.60
2018-01-15T08:54:36.837Z,61.47
2018-01-15T08:55:37.308Z,61.24
2018-01-15T08:56:37.779Z,60.92
2018-01-15T08:57:38.249Z,60.71
2018-01-15T08:58:38.719Z,60.53
2018-01-15T08:59:39.189Z,60.54
2018-01-15T09:00:39.659Z,60.41
2018-01-15T09:01:40.128Z,60.26
2018-01-15T09:02:40.599Z,60.13
2018-01-15T09:03:41.070Z,59.95
2018-01-15T09:04:41.540Z,59.46
2018-01-15T09:05:42.010Z,59.56
2018-01-15T09:06:42.481Z,59.40
2018-01-15T09:07:42.952Z,59.19
2018-01-15T09:08:43.422Z,59.28
2018-01-15T09:09:43.907Z,59.15
2018-01-15T09:10:44.376Z,59.03
2018-01-15T09:11:44.853Z,58.75
2018-01-15T09:12:45.307Z,58.57
2018-01-15T09:13:45.790Z,58.21
2018-01-15T09:14:46.262Z,57.71
2018-01-15T09:15:46.733Z,57.41
2018-01-15T09:16:47.189Z,57.22
2018-01-15T09:17:47.673Z,57.23
2018-01-15T09:19:00.037Z,56.90
2018-01-15T09:19:48.616Z,56.47
2018-01-15T09:20:49.086Z,56.48
2018-01-15T09:21:49.545Z,56.18
2018-01-15T09:22:50.032Z,56.01
2018-01-15T09:24:50.976Z,56.12
2018-01-15T09:25:51.445Z,55.69
2018-01-15T09:26:51.918Z,55.67
2018-01-15T09:27:52.389Z,55.54
2018-01-15T09:28:52.847Z,55.40
2018-01-15T09:29:53.331Z,55.06
2018-01-15T09:30:53.804Z,54.99
2018-01-15T09:31:54.277Z,54.76
2018-01-15T09:32:54.733Z,54.48
2018-01-15T09:33:55.221Z,54.02
2018-01-15T09:35:56.163Z,53.68
2018-01-15T09:36:56.635Z,53.34
2018-01-15T09:37:57.105Z,52.38
2018-01-15T09:38:57.578Z,51.97
2018-01-15T09:40:58.508Z,51.24
2018-01-15T09:41:58.993Z,51.36
2018-01-15T09:43:59.940Z,50.96
2018-01-15T09:45:00.413Z,50.79
2018-01-15T09:46:00.885Z,50.61
2018-01-15T09:47:01.357Z,49.81
2018-01-15T09:48:01.815Z,49.43
2018-01-15T09:49:02.299Z,49.46
2018-01-15T09:50:02.772Z,49.13
2018-01-15T09:51:03.245Z,49.23
2018-01-15T09:52:03.721Z,49.05
2018-01-15T09:53:04.189Z,49.03
2018-01-15T09:54:04.712Z,48.97
2018-01-15T09:55:05.133Z,48.89
2018-01-15T09:56:05.593Z,48.87
2018-01-15T09:57:06.080Z,48.90
2018-01-15T09:58:06.551Z,48.60
2018-01-15T09:59:07.025Z,48.40
2018-01-15T10:00:07.495Z,48.31
2018-01-15T10:01:07.969Z,48.41
2018-01-15T10:02:08.441Z,48.23
2018-01-15T10:03:08.899Z,48.27
2018-01-15T10:04:09.387Z,48.31
2018-01-15T10:05:09.862Z,48.37
2018-01-15T10:06:10.333Z,48.38
2018-01-15T10:07:10.791Z,48.51
2018-01-15T10:08:11.280Z,48.63
2018-01-15T10:10:12.222Z,48.83
2018-01-15T10:11:12.697Z,48.89
2018-01-15T10:12:13.169Z,48.93
2018-01-15T10:13:13.641Z,49.00
2018-01-15T10:14:14.102Z,48.97
2018-01-15T10:15:14.587Z,49.04
2018-01-15T10:17:15.536Z,49.05
2018-01-15T10:19:16.480Z,49.16
2018-01-15T10:20:16.953Z,49.17
2018-01-15T10:21:17.428Z,49.17
2018-01-15T10:22:17.900Z,49.15
2018-01-15T10:23:18.373Z,49.16
2018-01-15T10:24:18.849Z,49.16
2018-01-15T10:25:19.308Z,49.17
2018-01-15T10:26:19.793Z,49.02
2018-01-15T10:27:20.266Z,48.88
2018-01-15T10:28:20.738Z,48.73
2018-01-15T10:29:21.213Z,48.53
2018-01-15T10:30:21.689Z,48.38
2018-01-15T10:31:22.161Z,48.24
2018-01-15T10:32:22.620Z,48.18
2018-01-15T10:33:23.109Z,48.07
2018-01-15T10:34:23.566Z,47.95
2018-01-15T10:35:24.046Z,47.77
2018-01-15T10:36:24.518Z,47.68
2018-01-15T10:37:24.994Z,47.60
2018-01-15T10:39:38.082Z,47.46
2018-01-15T10:40:26.418Z,47.37
2018-01-15T10:41:26.884Z,47.13
2018-01-15T10:42:27.360Z,46.24
2018-01-15T10:43:27.836Z,45.41
2018-01-15T10:44:28.309Z,44.92
2018-01-15T10:45:28.783Z,44.55
2018-01-15T10:46:29.255Z,44.11
2018-01-15T10:47:29.732Z,43.80
2018-01-15T10:48:30.203Z,44.28
2018-01-15T10:49:30.677Z,44.00
2018-01-15T10:50:31.151Z,43.69
2018-01-15T10:51:31.625Z,43.38
2018-01-15T10:52:32.095Z,43.61
2018-01-15T10:53:32.575Z,43.58
2018-01-15T10:54:33.048Z,43.58
2018-01-15T10:55:33.522Z,43.71
2018-01-15T10:56:33.997Z,43.75
2018-01-15T10:57:34.470Z,43.88
2018-01-15T10:59:35.418Z,44.08
2018-01-15T11:00:35.895Z,44.18
2018-01-15T11:01:36.362Z,44.18
2018-01-15T11:02:36.841Z,44.31
2018-01-15T11:03:37.316Z,44.41
2018-01-15T11:05:38.258Z,44.48
2018-01-15T11:06:38.738Z,44.61
2018-01-15T11:07:39.213Z,44.59
2018-01-15T11:08:39.686Z,44.59
2018-01-15T11:10:40.636Z,44.61
2018-01-15T11:11:41.108Z,44.67
2018-01-15T11:12:41.580Z,44.61
2018-01-15T11:13:42.059Z,44.56
2018-01-15T11:14:42.534Z,44.50
2018-01-15T11:15:43.007Z,44.51
2018-01-15T11:16:43.481Z,44.45
2018-01-15T11:17:43.958Z,44.46
2018-01-15T11:19:44.946Z,44.37
2018-01-15T11:20:57.115Z,44.35
2018-01-15T11:21:45.853Z,44.26
2018-01-15T11:22:46.326Z,44.20
2018-01-15T11:23:46.802Z,44.17
2018-01-15T11:25:47.794Z,43.99
2018-01-15T11:26:48.239Z,43.96
2018-01-15T11:27:48.701Z,43.87
2018-01-15T11:28:49.175Z,43.91
2018-01-15T11:29:49.650Z,43.97
2018-01-15T11:30:50.120Z,43.82
2018-01-15T11:31:50.598Z,43.95
2018-01-15T11:32:51.073Z,43.92
2018-01-15T11:33:51.549Z,43.95
2018-01-15T11:34:52.023Z,43.89
2018-01-15T11:35:52.493Z,43.86
2018-01-15T11:37:53.447Z,43.96
2018-01-15T11:38:53.921Z,43.96
2018-01-15T11:39:54.396Z,43.96
2018-01-15T11:40:54.873Z,44.12
2018-01-15T11:41:55.346Z,44.02
2018-01-15T11:42:55.816Z,44.09
2018-01-15T11:43:56.297Z,44.12
2018-01-15T11:44:56.770Z,44.09
2018-01-15T11:45:57.244Z,44.00
2018-01-15T11:46:57.720Z,44.22
2018-01-15T11:47:58.196Z,44.28
2018-01-15T11:48:58.671Z,44.22
2018-01-15T11:49:59.146Z,44.28
2018-01-15T11:50:59.622Z,44.41
2018-01-15T11:52:00.097Z,44.44
2018-01-15T11:53:00.565Z,44.38
2018-01-15T11:54:01.045Z,44.41
2018-01-15T11:55:01.521Z,44.38
2018-01-15T11:56:14.138Z,44.41
2018-01-15T11:57:02.470Z,44.29
2018-01-15T11:58:02.947Z,44.26
2018-01-15T11:59:03.420Z,44.17
2018-01-15T12:00:03.895Z,44.15
2018-01-15T12:01:04.367Z,44.00
2018-01-15T12:02:04.848Z,43.94
2018-01-15T12:03:05.323Z,43.88
2018-01-15T12:04:05.795Z,43.67
2018-01-15T12:05:06.271Z,43.52
2018-01-15T12:06:06.748Z,43.40
2018-01-15T12:07:07.222Z,43.25
2018-01-15T12:08:07.696Z,42.94
2018-01-15T12:09:08.173Z,42.86
2018-01-15T12:10:08.653Z,42.74
2018-01-15T12:11:09.125Z,42.55
2018-01-15T12:12:09.598Z,42.43
2018-01-15T12:13:10.069Z,42.32
2018-01-15T12:14:10.565Z,42.07
2018-01-15T12:15:11.023Z,41.98
2018-01-15T12:16:11.549Z,41.89
2018-01-15T12:17:11.978Z,41.67
2018-01-15T12:18:12.449Z,41.64
2018-01-15T12:19:12.924Z,41.51
2018-01-15T12:20:13.396Z,41.58
2018-01-15T12:21:13.875Z,41.42
2018-01-15T12:22:14.353Z,41.45
2018-01-15T12:23:14.828Z,41.45
2018-01-15T12:24:15.301Z,41.38
2018-01-15T12:25:15.779Z,41.45
2018-01-15T12:26:16.306Z,41.63
2018-01-15T12:27:16.722Z,41.60
2018-01-15T12:28:17.203Z,41.69
2018-01-15T12:29:17.680Z,41.87
2018-01-15T12:30:18.155Z,42.09
2018-01-15T12:31:18.624Z,42.40
2018-01-15T12:32:19.105Z,42.42
2018-01-15T12:33:19.581Z,42.60
2018-01-15T12:34:20.057Z,42.85
2018-01-15T12:35:20.531Z,43.06
2018-01-15T12:36:21.007Z,43.27
2018-01-15T12:37:21.482Z,43.52
2018-01-15T12:38:21.955Z,43.69
2018-01-15T12:39:22.432Z,43.87
2018-01-15T12:40:22.907Z,44.05
2018-01-15T12:41:23.389Z,44.23
2018-01-15T12:42:23.861Z,44.32
2018-01-15T12:43:24.338Z,44.34
2018-01-15T12:44:24.808Z,44.58
2018-01-15T12:45:25.285Z,44.76
2018-01-15T12:46:25.756Z,45.16
2018-01-15T12:47:26.235Z,45.46
2018-01-15T12:48:26.711Z,45.77
2018-01-15T12:49:27.188Z,45.91
2018-01-15T12:51:40.176Z,46.36
2018-01-15T12:52:28.614Z,46.51
2018-01-15T12:53:29.085Z,46.84
2018-01-15T12:54:29.565Z,46.99
2018-01-15T12:55:30.039Z,47.04
2018-01-15T12:56:30.515Z,47.25
2018-01-15T12:57:30.985Z,47.46
2018-01-15T12:58:31.466Z,47.57
2018-01-15T12:59:31.941Z,47.75
2018-01-15T13:01:32.892Z,48.23
2018-01-15T13:03:33.843Z,48.55
2018-01-15T13:04:34.314Z,48.54
2018-01-15T13:05:34.797Z,48.69
2018-01-15T13:06:35.270Z,48.99
2018-01-15T13:08:36.221Z,49.31
2018-01-15T13:09:36.696Z,49.34
2018-01-15T13:10:37.173Z,49.61
2018-01-15T13:11:37.647Z,49.69
2018-01-15T13:12:38.123Z,49.81
2018-01-15T13:13:38.600Z,49.98
2018-01-15T13:14:39.074Z,50.04
2018-01-15T13:15:39.544Z,50.03
2018-01-15T13:16:40.024Z,50.18
2018-01-15T13:17:40.502Z,50.33
2018-01-15T13:18:40.975Z,50.32
2018-01-15T13:19:41.453Z,50.32
2018-01-15T13:20:41.925Z,50.52
2018-01-15T13:21:42.403Z,50.55
2018-01-15T13:22:42.877Z,50.66
2018-01-15T13:23:43.351Z,50.69
2018-01-15T13:24:43.830Z,50.69
2018-01-15T13:25:44.300Z,50.86
2018-01-15T13:26:44.779Z,50.95
2018-01-15T13:27:45.253Z,51.00
2018-01-15T13:28:45.729Z,51.03
2018-01-15T13:30:46.681Z,51.05
2018-01-15T13:31:59.249Z,51.02
2018-01-15T13:32:47.626Z,51.14
2018-01-15T13:33:48.106Z,51.25
2018-01-15T13:34:48.581Z,51.34
2018-01-15T13:35:49.056Z,51.34
2018-01-15T13:36:49.531Z,51.42
2018-01-15T13:37:50.035Z,51.48
2018-01-15T13:38:50.482Z,51.51
2018-01-15T13:39:50.956Z,51.62
2018-01-15T13:40:51.428Z,51.71
2018-01-15T13:42:03.237Z,51.80
2018-01-15T13:42:52.384Z,51.85
2018-01-15T13:43:52.858Z,51.97